Go Pro

Amazon.com (AMZN) Institutional Ownership

Amazon.com logo
$258.51 -0.39 (-0.15%)
As of 09/4/2026 04:00 PM Eastern

Institutional Ownership Changes (13F Filings) for Amazon.com (NASDAQ:AMZN)

Current
Institutional Ownership
Percentage
72.20%
Number of
Institutional Buyers
(last 12 months)
4616
Total
Institutional Inflows
(last 12 months)
$261.53B
Number of
Institutional Sellers
(last 12 months)
3066
Total
Institutional Outflows
(last 12 months)
$63.39B
Get AMZN Insider Trade Alerts

Want to know when executives and insiders are buying or selling Amazon.com stock? Sign up for InsiderTrades.com's daily newsletter to get the latest insider transactions delivered to your inbox daily.

SMS is currently available in Australia, Belgium, Canada, France, Germany, Ireland, Italy, New Zealand, the Netherlands, Singapore, South Africa, Spain, Switzerland, the United Kingdom, and the United States. By entering your phone number and clicking the sign-up button, you agree to receive periodic text messages from MarketBeat at the phone number you submitted, including texts that may be sent using an automatic telephone dialing system. Message and data rates may apply. Message frequency will vary. Messages will consist of stock alerts, news stories, and partner advertisements/offers. Consent is not a condition of the purchase of any goods or services. Text HELP for help/customer support. Unsubscribe at any time by replying "STOP" to any text message that you receive from MarketBeat or by visiting our mailing preferences page. Read our full terms of service and privacy policy.
Skip Chart & View Institutional Buying and Selling Data

AMZN Institutional Buying and Selling by Quarter

Amazon.com Major Shareholders & Ownership History

Reporting DateMajor Shareholder NameShares HeldMarket Value% of PortfolioQuarterly Change in SharesOwnership in CompanyDetails
9/3/2026 Anchor Capital Advisors LLC99,138$23.63M0.4%+2,199.1%0.001%
9/2/2026 MLG Wealth Management DBA Pine Grove Financial Group8,272$1.96M0.2%+21.2%0.000%
9/2/2026 Second Line Capital LLC23,817$5.68M1.0%-3.9%0.000%
9/2/2026 Kinetic Wealth Investment Advisors LLC1,077$257K0.1%N/A0.000%
9/2/2026 Range Advisory LLC48,710$11.61M1.4%+45.2%0.000%
9/2/2026 Capital & Planning LLC2,950$703K0.4%+26.6%0.000%
9/2/2026 Brown Lisle Cummings Inc.57,762$13.43M2.9%+4.9%0.001%
9/1/2026 Agur Provident & Training Funds Management Ltd.60,750$13.62M3.2%N/A0.001%
9/1/2026 Parrish Capital LLC2,440$582K0.5%-41.5%0.000%
8/28/2026 Cornerstone Financial Management LLC3,084$735K0.6%+21.7%0.000%
8/27/2026 Formuepleje A S193,555$46.13M3.6%+34.1%0.002%
8/27/2026 Tucker Asset Management LLC3,550$846K0.2%-4.2%0.000%
8/27/2026 SHEPHERD WEALTH MANAGEMENT Ltd LIABILITY Co6,016$1.57M0.5%-2.2%0.000%
8/26/2026 HORAN Wealth LLC21,872$5.21M0.7%+4.0%0.000%
8/26/2026 Principia Wealth Advisory LLC1,113$265K0.1%+21.5%0.000%
8/26/2026 Amundi63,822,242$15.21B3.7%+3.9%0.592%
8/26/2026 Wellington Grp LLC17,977$4.29M1.1%+13.7%0.000%
8/26/2026 Affinity Wealth LLC319$76K0.0%N/A0.000%
8/26/2026 Brown Financial Advisors26,802$6.39M2.2%-12.0%0.000%
8/26/2026 HighTower Advisors LLC6,013,605$1.43B1.4%+4.7%0.056%
8/25/2026 Advus Financial Partners LLC17,047$4.06M0.9%-4.7%0.000%
8/25/2026 Kirkwood Financial Services1,539$367K0.1%N/A0.000%
8/25/2026 Absolute Gestao de Investimentos Ltda.8,000$1.91M0.2%-78.3%0.000%
8/25/2026 Kingsbury Capital Investment Advisors LLC14,518$3.46M2.9%-13.9%0.000%
8/25/2026 VIRGINIA RETIREMENT SYSTEMS ET Al1,659,900$395.62M2.4%N/A0.015%
8/25/2026 Financial Insights Inc.16,536$3.94M1.1%+5.8%0.000%
8/24/2026 Strategic Financial Services Inc.9,885$2.36M0.1%-1.6%0.000%
8/24/2026 Vancity Investment Management Ltd187,780$44.76M6.7%-4.3%0.002%
8/23/2026 Tanager Wealth Management LLP20,252$4.83M0.4%-9.8%0.000%
8/23/2026 DMC Group LLC10,331$2.46M1.7%-21.8%0.000%
8/23/2026 Studio Investment Management LLC11,483$2.74M0.5%-3.4%0.000%
8/23/2026 Crow s Nest Holdings LP175,000$41.71M12.6%-35.2%0.002%
8/23/2026 Washington Trust Advisors Inc.198,001$47.19M3.5%-4.6%0.002%
8/23/2026 Ameritas Advisory Services LLC144,432$34.42M0.7%+78.0%0.001%
8/23/2026 Trevian Wealth Management LLC8,418$2.01M0.9%+1.8%0.000%
8/23/2026 Varenne Capital Partners61,050$14.54M2.4%+398.8%0.001%
8/23/2026 Henrickson Nauta Wealth Advisors Inc.2,806$669K0.2%+33.0%0.000%
8/23/2026 Wedmont Private Capital175,224$42.99M1.2%+3.4%0.002%
8/23/2026 Kintra Wealth LLC104,575$24.92M1.3%+11.7%0.001%
8/23/2026 Morling Financial Advisors LLC8,748$2.09M0.6%-3.1%0.000%
The trade I’ve been waiting for since 2011 (Ad)

Ross Givens, Director of Research at Traders Agency, is calling for gold to reach $10,000 an ounce this supercycle - and says that may be conservative. Billionaire Pierre Lassonde has argued for $19,000. Former CIA advisor Jim Rickards targets $27,000 based on a federal revaluation of the gold supply. But the bigger opportunity may not be gold itself. A 'backdoor' gold-linked asset has historically multiplied gold's move by 10x or more - returning 846%, 1,668%, 1,847%, and 1,915% in the last supercycle.tc pixel

Watch the free video briefing and learn the No. 1 trade to leverage rising gold
8/23/2026 PCG Wealth Advisors LLC8,831$2.11M0.5%-6.4%0.000%
8/23/2026 Aspire Capital Advisors LLC24,270$5.79M1.1%-1.5%0.000%
8/23/2026 Endeavor Private Wealth Inc.8,889$2.12M0.5%+10.8%0.000%
8/23/2026 POM Investment Strategies LLC1,220$291K0.3%+223.6%0.000%
8/23/2026 Bayshore Asset Management LLC5,878$1.40M0.5%-8.8%0.000%
8/23/2026 Sovereign Investment Advisors LLC2,244$535K0.1%-61.9%0.000%
8/23/2026 Yarger Wealth Strategies LLC30,713$7.54M2.7%+2.3%0.000%
8/23/2026 Echo45 Advisors LLC4,895$1.17M0.6%-18.0%0.000%
8/23/2026 SFG Wealth Management LLC.6,205$1.48M0.5%-3.1%0.000%
8/23/2026 Insight Inv LLC17,673$4.21M2.0%+0.5%0.000%
8/23/2026 Operose Advisors LLC14,929$3.56M0.7%+6.7%0.000%
8/23/2026 Ameliora Wealth Management Ltd.15,411$3.67M1.1%+5.5%0.000%
8/23/2026 Kraematon Investment Advisors Inc.10,453$2.49M1.9%+1.2%0.000%
8/23/2026 Mid American Wealth Advisory Group Inc.4,245$1.01M0.4%+123.8%0.000%
8/23/2026 Nilsine Partners LLC104,703$24.96M1.7%+0.8%0.001%
8/23/2026 Nvest Financial LLC26,577$6.33M2.0%-0.4%0.000%
8/23/2026 Saudi Central Bank677,520$161.48M2.1%+90.8%0.006%
8/23/2026 Hutchens & Kramer Investment Management Group LLC8,437$2.01M0.5%-30.8%0.000%
8/23/2026 Asset Allocation Strategies LLC4,437$1.06M0.2%+4.3%0.000%
8/23/2026 Chico Wealth RIA2,718$648K0.3%+11.4%0.000%
8/23/2026 Fortitude Advisory Group L.L.C.25,309$6.03M2.3%-2.2%0.000%
8/23/2026 Angeles Wealth Management LLC118,524$28.25M1.1%+18.7%0.001%
8/23/2026 Highland Financial Advisors LLC6,350$1.51M0.3%+4.1%0.000%
8/23/2026 Azimuth Capital Investment Management LLC130,567$31.12M1.1%+23.5%0.001%
8/23/2026 Unique Wealth LLC10,659$2.54M0.3%+4.7%0.000%
8/23/2026 Red Lighthouse Investment Management LLC6,575$1.57M0.5%+2.8%0.000%
8/23/2026 Riverview Capital Advisers LLC106,509$25.39M7.3%-5.9%0.001%
8/23/2026 Kaydan Wealth Management Inc.1,458$348K0.1%-6.5%0.000%
8/23/2026 Chokshi & Queen Wealth Advisors Inc18,354$4.37M2.0%+3.7%0.000%
8/22/2026 Noble Wealth Partners LLC2,390$570K0.5%N/A0.000%
8/22/2026 Advisory Solutions Group LLC6,726$1.60M0.5%N/A0.000%
8/22/2026 XP Advisory US Inc.1,460$348K0.2%N/A0.000%
8/22/2026 Rose Capital Advisors LLC8,037$1.92M1.0%N/A0.000%
8/22/2026 Schuylkill Financial LLC6,695$1.60M1.5%N/A0.000%
8/22/2026 NI Acquisitions Company LLC507$121K0.0%N/A0.000%
8/22/2026 NBH Bank17,923$4.27M1.8%N/A0.000%
8/22/2026 Gainline Financial Partners LLC1,916$457K0.4%N/A0.000%
8/22/2026 Shah Wealth Advisors LLC8,930$2.13M0.5%N/A0.000%
8/22/2026 William John Sempolinski26,124$6.23M2.5%N/A0.000%
8/22/2026 Arbor Wealth Management LLC AZ2,178$519K0.5%N/A0.000%
8/22/2026 Succession Financial Inc.2,093$499K0.5%N/A0.000%
8/22/2026 MW Advisory LLC15,108$3.60M1.4%N/A0.000%
8/22/2026 Maloon Powers Pitre Higgins & Dennehy LLC13,039$3.11M1.1%N/A0.000%
8/22/2026 Markowski Investments33,248$7.92M1.7%N/A0.000%
8/22/2026 Old Mission Investment Co LLC34,407$8.20M1.7%N/A0.000%
8/22/2026 Montgomery Financial Services LLC515$123K0.1%N/A0.000%
8/22/2026 OceanIQ Capital LLC15,090$3.60M2.2%N/A0.000%
8/22/2026 Highland Investment Advisors LLC1,689$403K0.2%N/A0.000%
8/22/2026 Turner Financial Group Inc.1,582$377K0.4%N/A0.000%
8/22/2026 Timbuktu Capital Management LLC2,264$540K0.8%N/A0.000%
How to Think About a $500K Roth Conversion and the 35% Bracket (Ad)

For 2026, the 35 percent federal tax bracket starts at 512,450 dollars in taxable income for joint filers and 256,225 dollars for single filers. Converting a large IRA to a Roth in one year could push some income into that higher bracket. Some taxpayers spread conversions across multiple years to stay within a targeted bracket, factoring in Medicare surcharges and state taxes along the way. A fiduciary financial advisor can help evaluate conversion timing and tax impact for your specific situation.tc pixel

Take the free quiz to get matched with a fiduciary advisor now
8/22/2026 Oakmont Investment Advisors Inc.12,182$2.90M2.0%N/A0.000%
8/22/2026 TOP Private Wealth LLC.120$29K0.0%N/A0.000%
8/22/2026 Strive Financial Group LLC20,389$4.86M2.1%-4.2%0.000%
8/22/2026 Munich Reinsurance Co Stock Corp in Munich424,570$101.19M2.3%+8.3%0.004%
8/22/2026 Cassilly Financial Group LLC1,360$324K0.2%+35.1%0.000%
8/22/2026 Hopwood Nicholas Hunter4,848$1.16M0.3%N/A0.000%
8/22/2026 Blalock Williams LLC8,348$1.99M1.3%+8.5%0.000%
8/22/2026 MOR Wealth Management LLC8,133$1.94M0.8%-10.2%0.000%
8/22/2026 Jeter Robert S II4,159$1.02M1.0%-4.9%0.000%
8/22/2026 Plan A Wealth LLC2,340$558K0.2%-18.1%0.000%


AMZN Institutional Ownership - Frequently Asked Questions

During the previous two years, 6,524 institutional investors and hedge funds held shares of Amazon.com. The most heavily invested institutionals were Vanguard Group Inc. ($195.14B), State Street Corp ($89.71B), FMR LLC ($72.06B), Geode Capital Management LLC ($51.75B), Morgan Stanley ($37.30B), Norges Bank ($32.87B), and Price T Rowe Associates Inc. MD ($30.23B).Learn more on Amazon.com's institutional investors.

72.20% of Amazon.com's stock is owned by institutional investors. Learn more on AMZN's institutional investor holdings.

Of the 5,998 institutional investors that purchased Amazon.com's stock in the last 24 months, the following investors and hedge funds have bought the highest volume of shares: Norges Bank ($391.75M), Kingstone Capital Partners Texas LLC ($132.64M), Auto Owners Insurance Co ($98.09M), Bank of America Corp DE ($96.81M), J. Stern & Co. LLP ($87.61M), Bank of New York Mellon Corp ($69.11M), and Nuveen LLC ($61.36M).

Institutional investors have bought a total of 1,127,833,537 shares in the last 24 months. This purchase volume represents approximately $261.53B in transactions.

Of the 3,066 institutional investors that sold Amazon.com's stock in the last 24 months, the following investors and hedge funds have sold the highest volume of shares: Cardano Risk Management B.V. ($24.95M), Capital World Investors ($16.20M), UBS AM a distinct business unit of UBS ASSET MANAGEMENT AMERICAS LLC ($12.60M), Laurel Wealth Advisors LLC ($12.12M), Price T Rowe Associates Inc. MD ($12.04M), T. Rowe Price Investment Management Inc. ($11.92M), and Berkshire Hathaway Inc ($7.72M).

Institutional investors have sold a total of 283,170,542 shares in the last 24 months. This volume of shares sold represents approximately $63.39B in transactions.



Institutional ownership data for NASDAQ:AMZN is compiled from quarterly 13F filings submitted to the U.S. Securities and Exchange Commission (SEC), with the most recent received on 9/3/2026. New 13F filings are added each quarter as they're published.
From Our Partners